Live Webcam Brienzersee more information Live Webcam Brienzersee


Besuchen Sie unsere anderen Wetter Stationen:

Template documentation
and downloads

And another site



METAR-Meldungen aus der Umgebung

   
EBBR - Brussels International Airport, Belgium
Entfernung von der Station bis: W 14 km
Aktualisierung: 24-04-2018 17:50
Klar  
Klar  
   Wind: SW 22.2 km/h
Wind: SW 22.2 km/h
Temperatur: 16°C
Taupunkt: 9°C
Luftfeuchte: 63%
Luftdruck: 1015 hPa
Sichtbarkeit: More than 10 km
Bewölkung: Klar ft
EBBR 241550Z 23012KT CAVOK 16/09 Q1015 NOSIG
EBBE - Beauvechain (Bevekom), Belgium
Entfernung von der Station bis: SSO 17 km
Aktualisierung: 24-04-2018 17:55
Stark bewölkt  
Stark bewölkt  
   Wind: SW 25.9 km/h
Wind: SW 25.9 km/h
Temperatur: 16°C
Taupunkt: 9°C
Luftfeuchte: 63%
Luftdruck: 1015 hPa
Bewölkt: Mostly Cloudy
Sichtbarkeit: More than 10 km
Bewölkung: leicht bewölkt 2800 ft,
Stark bewölkt 20000 ft
EBBE 241555Z 22014KT 9999 FEW028 BKN200 16/09 Q1015 BLU BLU
EBDT - Schaffen, Belgium
Entfernung von der Station bis: ONO 29 km
Aktualisierung: 24-04-2018 17:55
Stark bewölkt  
Stark bewölkt  
   Wind: SW 13 km/h
Wind: SW 13 km/h
Temperatur: 15°C
Taupunkt: 8°C
Luftfeuchte: 63%
Luftdruck: 1015 hPa
Bewölkt: Mostly Cloudy
Sichtbarkeit: More than 10 km
Bewölkung: leicht bewölkt 9500 ft,
Stark bewölkt 21000 ft
EBDT 241555Z AUTO 23007KT 9999 FEW095/// BKN210/// 15/08 Q1015 BLU
EBAW - Antwerp/Deurne, Belgium
Entfernung von der Station bis: NNW 38 km
Aktualisierung: 24-04-2018 17:50
Stark bewölkt  
Stark bewölkt  
   Wind: SW 18.5 km/h
Wind: SW 18.5 km/h
Temperatur: 16°C
Taupunkt: 9°C
Luftfeuchte: 63%
Luftdruck: 1014 hPa
Bewölkt: Mostly Cloudy
Sichtbarkeit: More than 10 km
Bewölkung: Stark bewölkt 3200 ft
EBAW 241550Z 22010KT 9999 BKN032 16/09 Q1014 NOSIG
EBCI - Charleroi/Gosselies, Belgium
Entfernung von der Station bis: SSW 51 km
Aktualisierung: 24-04-2018 17:50
Teilweise bewölkt  
Teilweise bewölkt  
   Wind: SW 20.4 km/h
Wind: SW 20.4 km/h
Temperatur: 16°C
Taupunkt: 10°C
Luftfeuchte: 68%
Luftdruck: 1015 hPa
Bewölkt: Partly Cloudy
Sichtbarkeit: More than 10 km
Bewölkung: leicht bewölkt 1700 ft,
Teilweise bewölkt 2500 ft
EBCI 241550Z 22011KT 9999 FEW017 SCT025 16/10 Q1015 NOSIG
EBLG - Bierset/Liege, Belgium
Entfernung von der Station bis: OSO 60 km
Aktualisierung: 24-04-2018 17:50
leicht bewölkt  
leicht bewölkt  
   Wind: WSW 18.5 km/h
Wind: WSW 18.5 km/h
Temperatur: 16°C
Taupunkt: 10°C
Luftfeuchte: 68%
Luftdruck: 1015 hPa
Bewölkt: Few Clouds
Sichtbarkeit: More than 10 km
Bewölkung: leicht bewölkt 2800 ft
EBLG 241550Z 25010KT 9999 FEW028 16/10 Q1015 NOSIG

Script entwickelt von  Saratoga-weather.org Angepasst für das Template von  Weerstation Leuven